sensor_id;sensor_type;location;lat;lon;timestamp;temperature;humidity
55365;DHT22;41245;45.384;20.390;2023-04-15T05:16:26;410.40;2355.20
55365;DHT22;41245;45.384;20.390;2023-04-15T05:18:52;410.40;2355.20
55365;DHT22;41245;45.384;20.390;2023-04-15T05:21:18;436.10;2355.20
55365;DHT22;41245;45.384;20.390;2023-04-15T05:23:44;486.60;2380.80
55365;DHT22;41245;45.384;20.390;2023-04-15T05:48:04;384.50;2329.60
55365;DHT22;41245;45.384;20.390;2023-04-15T05:50:30;359.20;2329.60
55365;DHT22;41245;45.384;20.390;2023-04-15T05:52:56;358.70;2329.60
55365;DHT22;41245;45.384;20.390;2023-04-15T05:55:22;333.60;2329.60
55365;DHT22;41245;45.384;20.390;2023-04-15T05:57:47;333.50;2329.60
55365;DHT22;41245;45.384;20.390;2023-04-15T06:00:13;333.20;2329.60
55365;DHT22;41245;45.384;20.390;2023-04-15T06:02:39;333.10;2329.60
55365;DHT22;41245;45.384;20.390;2023-04-15T06:05:06;333.10;2329.60
55365;DHT22;41245;45.384;20.390;2023-04-15T06:07:35;333.00;2329.60
55365;DHT22;41245;45.384;20.390;2023-04-15T06:10:02;332.90;2329.60
55365;DHT22;41245;45.384;20.390;2023-04-15T06:12:28;332.90;2329.60
55365;DHT22;41245;45.384;20.390;2023-04-15T06:14:54;332.90;2329.60
55365;DHT22;41245;45.384;20.390;2023-04-15T06:17:19;332.90;2329.60
55365;DHT22;41245;45.384;20.390;2023-04-15T06:19:45;332.90;2329.60
55365;DHT22;41245;45.384;20.390;2023-04-15T06:22:11;333.00;2329.60
55365;DHT22;41245;45.384;20.390;2023-04-15T06:24:36;333.00;2329.60
55365;DHT22;41245;45.384;20.390;2023-04-15T06:27:02;333.00;2329.60
55365;DHT22;41245;45.384;20.390;2023-04-15T06:29:28;333.10;2329.60
55365;DHT22;41245;45.384;20.390;2023-04-15T06:31:54;333.10;2329.60
55365;DHT22;41245;45.384;20.390;2023-04-15T06:34:21;333.40;2329.60
55365;DHT22;41245;45.384;20.390;2023-04-15T06:36:46;333.30;2329.60
55365;DHT22;41245;45.384;20.390;2023-04-15T06:39:12;333.30;2329.60
55365;DHT22;41245;45.384;20.390;2023-04-15T06:41:38;333.40;2329.60
55365;DHT22;41245;45.384;20.390;2023-04-15T06:44:04;333.40;2329.60
55365;DHT22;41245;45.384;20.390;2023-04-15T06:46:30;333.40;2329.60
55365;DHT22;41245;45.384;20.390;2023-04-15T06:48:55;333.60;2329.60
55365;DHT22;41245;45.384;20.390;2023-04-15T06:51:21;333.70;2329.60
55365;DHT22;41245;45.384;20.390;2023-04-15T06:53:48;333.60;2329.60
55365;DHT22;41245;45.384;20.390;2023-04-15T06:56:14;333.60;2329.60
55365;DHT22;41245;45.384;20.390;2023-04-15T06:58:40;333.70;2329.60
55365;DHT22;41245;45.384;20.390;2023-04-15T07:01:05;358.40;2329.60
55365;DHT22;41245;45.384;20.390;2023-04-15T07:03:31;358.40;2329.60
55365;DHT22;41245;45.384;20.390;2023-04-15T07:05:57;358.60;2329.60
55365;DHT22;41245;45.384;20.390;2023-04-15T07:08:23;359.10;2329.60
55365;DHT22;41245;45.384;20.390;2023-04-15T07:10:49;358.80;2329.60
55365;DHT22;41245;45.384;20.390;2023-04-15T07:13:14;358.80;2329.60
55365;DHT22;41245;45.384;20.390;2023-04-15T07:15:40;358.80;2329.60
55365;DHT22;41245;45.384;20.390;2023-04-15T07:18:06;358.90;2329.60
55365;DHT22;41245;45.384;20.390;2023-04-15T07:20:31;359.00;2329.60
55365;DHT22;41245;45.384;20.390;2023-04-15T07:22:57;359.00;2329.60
55365;DHT22;41245;45.384;20.390;2023-04-15T07:25:23;359.10;2329.60
55365;DHT22;41245;45.384;20.390;2023-04-15T07:27:49;359.20;2329.60
55365;DHT22;41245;45.384;20.390;2023-04-15T07:30:15;359.30;2329.60
55365;DHT22;41245;45.384;20.390;2023-04-15T07:32:41;384.10;2329.60
55365;DHT22;41245;45.384;20.390;2023-04-15T07:35:07;384.20;2329.60
55365;DHT22;41245;45.384;20.390;2023-04-15T07:37:34;384.30;2329.60
55365;DHT22;41245;45.384;20.390;2023-04-15T07:40:01;384.70;2329.60
55365;DHT22;41245;45.384;20.390;2023-04-15T07:42:29;409.60;2355.20
55365;DHT22;41245;45.384;20.390;2023-04-15T07:44:55;409.70;2355.20
55365;DHT22;41245;45.384;20.390;2023-04-15T07:47:21;409.80;2355.20
55365;DHT22;41245;45.384;20.390;2023-04-15T07:49:46;409.80;2355.20
55365;DHT22;41245;45.384;20.390;2023-04-15T07:52:12;409.80;2355.20
55365;DHT22;41245;45.384;20.390;2023-04-15T07:54:38;409.80;2355.20
55365;DHT22;41245;45.384;20.390;2023-04-15T07:57:04;409.80;2355.20
55365;DHT22;41245;45.384;20.390;2023-04-15T07:59:29;409.80;2355.20
55365;DHT22;41245;45.384;20.390;2023-04-15T08:01:57;409.90;2355.20
55365;DHT22;41245;45.384;20.390;2023-04-15T08:04:24;409.90;2355.20
55365;DHT22;41245;45.384;20.390;2023-04-15T08:06:49;410.00;2355.20
55365;DHT22;41245;45.384;20.390;2023-04-15T08:09:16;409.90;2355.20
55365;DHT22;41245;45.384;20.390;2023-04-15T08:11:42;409.90;2355.20
55365;DHT22;41245;45.384;20.390;2023-04-15T08:14:08;410.10;2355.20
55365;DHT22;41245;45.384;20.390;2023-04-15T08:16:34;410.20;2355.20
55365;DHT22;41245;45.384;20.390;2023-04-15T08:19:00;410.20;2355.20
55365;DHT22;41245;45.384;20.390;2023-04-15T08:21:25;410.40;2355.20
55365;DHT22;41245;45.384;20.390;2023-04-15T08:23:52;410.50;2355.20
55365;DHT22;41245;45.384;20.390;2023-04-15T08:26:19;435.20;2355.20
55365;DHT22;41245;45.384;20.390;2023-04-15T08:28:45;435.30;2355.20
55365;DHT22;41245;45.384;20.390;2023-04-15T08:31:12;435.20;2355.20
55365;DHT22;41245;45.384;20.390;2023-04-15T08:33:38;435.30;2355.20
55365;DHT22;41245;45.384;20.390;2023-04-15T08:36:04;435.30;2355.20
55365;DHT22;41245;45.384;20.390;2023-04-15T08:38:31;435.50;2355.20
55365;DHT22;41245;45.384;20.390;2023-04-15T08:40:59;435.50;2355.20
55365;DHT22;41245;45.384;20.390;2023-04-15T08:43:27;435.60;2355.20
55365;DHT22;41245;45.384;20.390;2023-04-15T08:45:54;435.50;2355.20
55365;DHT22;41245;45.384;20.390;2023-04-15T08:48:20;435.60;2355.20
55365;DHT22;41245;45.384;20.390;2023-04-15T08:50:48;435.70;2355.20
55365;DHT22;41245;45.384;20.390;2023-04-15T08:53:15;435.90;2355.20
55365;DHT22;41245;45.384;20.390;2023-04-15T08:55:45;460.80;2380.80
55365;DHT22;41245;45.384;20.390;2023-04-15T08:58:11;461.10;2380.80
55365;DHT22;41245;45.384;20.390;2023-04-15T09:00:38;461.20;2380.80
55365;DHT22;41245;45.384;20.390;2023-04-15T09:03:04;461.50;2380.80
55365;DHT22;41245;45.384;20.390;2023-04-15T09:05:37;461.40;2380.80
55365;DHT22;41245;45.384;20.390;2023-04-15T09:08:04;461.70;2380.80
55365;DHT22;41245;45.384;20.390;2023-04-15T09:10:31;486.40;2380.80
55365;DHT22;41245;45.384;20.390;2023-04-15T09:12:57;486.40;2380.80
55365;DHT22;41245;45.384;20.390;2023-04-15T09:15:27;486.40;2380.80
55365;DHT22;41245;45.384;20.390;2023-04-15T09:17:55;486.50;2380.80
55365;DHT22;41245;45.384;20.390;2023-04-15T09:20:21;486.60;2380.80
55365;DHT22;41245;45.384;20.390;2023-04-15T09:22:48;486.80;2073.60
55365;DHT22;41245;45.384;20.390;2023-04-15T09:28:07;487.10;2380.80
55365;DHT22;41245;45.384;20.390;2023-04-15T09:55:14;512.50;2380.80
55365;DHT22;41245;45.384;20.390;2023-04-15T09:57:40;512.30;2329.60
55365;DHT22;41245;45.384;20.390;2023-04-15T10:00:07;512.20;2380.80
55365;DHT22;41245;45.384;20.390;2023-04-15T10:02:36;512.00;2124.80
55365;DHT22;41245;45.384;20.390;2023-04-15T10:05:02;512.20;2304.00
55365;DHT22;41245;45.384;20.390;2023-04-15T10:07:28;512.20;2380.80
55365;DHT22;41245;45.384;20.390;2023-04-15T10:09:55;512.10;2150.40
55365;DHT22;41245;45.384;20.390;2023-04-15T10:12:21;512.20;2176.00
55365;DHT22;41245;45.384;20.390;2023-04-15T10:14:55;512.20;2380.80
55365;DHT22;41245;45.384;20.390;2023-04-15T10:17:21;512.30;2380.80
55365;DHT22;41245;45.384;20.390;2023-04-15T10:19:48;512.50;2380.80
55365;DHT22;41245;45.384;20.390;2023-04-15T10:22:14;512.50;2380.80
55365;DHT22;41245;45.384;20.390;2023-04-15T10:24:41;512.50;2380.80
55365;DHT22;41245;45.384;20.390;2023-04-15T10:27:07;512.60;2380.80
55365;DHT22;41245;45.384;20.390;2023-04-15T10:29:34;512.80;2380.80
55365;DHT22;41245;45.384;20.390;2023-04-15T10:32:00;512.90;2355.20
55365;DHT22;41245;45.384;20.390;2023-04-15T10:34:27;537.60;2406.40
55365;DHT22;41245;45.384;20.390;2023-04-15T10:37:01;512.80;2380.80
55365;DHT22;41245;45.384;20.390;2023-04-15T10:42:16;537.90;2406.40
55365;DHT22;41245;45.384;20.390;2023-04-15T10:44:44;537.90;2406.40
55365;DHT22;41245;45.384;20.390;2023-04-15T10:47:14;538.30;2406.40
55365;DHT22;41245;45.384;20.390;2023-04-15T10:49:51;538.30;2406.40
55365;DHT22;41245;45.384;20.390;2023-04-15T10:52:21;538.20;2406.40
55365;DHT22;41245;45.384;20.390;2023-04-15T10:54:47;537.90;2406.40
55365;DHT22;41245;45.384;20.390;2023-04-15T10:57:21;537.70;2406.40
55365;DHT22;41245;45.384;20.390;2023-04-15T11:00:13;512.60;2380.80
55365;DHT22;41245;45.384;20.390;2023-04-15T11:02:55;512.60;2380.80
55365;DHT22;41245;45.384;20.390;2023-04-15T11:08:06;512.80;2380.80
55365;DHT22;41245;45.384;20.390;2023-04-15T11:13:00;512.70;2380.80
55365;DHT22;41245;45.384;20.390;2023-04-15T11:15:37;512.90;2380.80
55365;DHT22;41245;45.384;20.390;2023-04-15T11:18:28;512.70;2380.80
55365;DHT22;41245;45.384;20.390;2023-04-15T11:21:03;512.50;2355.20
55365;DHT22;41245;45.384;20.390;2023-04-15T11:23:35;512.10;2380.80
55365;DHT22;41245;45.384;20.390;2023-04-15T11:26:04;487.20;2380.80
55365;DHT22;41245;45.384;20.390;2023-04-15T11:28:32;512.20;2380.80
55365;DHT22;41245;45.384;20.390;2023-04-15T11:30:59;487.30;2380.80
55365;DHT22;41245;45.384;20.390;2023-04-15T11:33:30;487.30;2380.80
55365;DHT22;41245;45.384;20.390;2023-04-15T11:35:55;512.10;2380.80
55365;DHT22;41245;45.384;20.390;2023-04-15T11:38:22;512.00;2380.80
55365;DHT22;41245;45.384;20.390;2023-04-15T11:40:49;512.10;2380.80
55365;DHT22;41245;45.384;20.390;2023-04-15T11:43:20;512.50;2380.80
55365;DHT22;41245;45.384;20.390;2023-04-15T11:48:16;512.60;2380.80
55365;DHT22;41245;45.384;20.390;2023-04-15T11:50:43;512.30;2380.80
55365;DHT22;41245;45.384;20.390;2023-04-15T11:53:12;512.50;2380.80
55365;DHT22;41245;45.384;20.390;2023-04-15T11:55:49;512.10;2380.80
55365;DHT22;41245;45.384;20.390;2023-04-15T11:58:17;512.10;2380.80
55365;DHT22;41245;45.384;20.390;2023-04-15T12:16:41;512.60;2380.80
55365;DHT22;41245;45.384;20.390;2023-04-15T12:19:12;512.70;2329.60
55365;DHT22;41245;45.384;20.390;2023-04-15T12:21:40;512.40;2380.80
55365;DHT22;41245;45.384;20.390;2023-04-15T12:24:09;512.60;2380.80
55365;DHT22;41245;45.384;20.390;2023-04-15T12:26:41;512.40;2380.80
55365;DHT22;41245;45.384;20.390;2023-04-15T12:29:07;512.40;2380.80
55365;DHT22;41245;45.384;20.390;2023-04-15T12:31:45;512.60;2380.80
55365;DHT22;41245;45.384;20.390;2023-04-15T12:34:11;512.60;2380.80
55365;DHT22;41245;45.384;20.390;2023-04-15T12:36:36;512.70;2380.80
55365;DHT22;41245;45.384;20.390;2023-04-15T12:39:03;512.80;2380.80
55365;DHT22;41245;45.384;20.390;2023-04-15T12:41:29;512.70;2380.80
55365;DHT22;41245;45.384;20.390;2023-04-15T12:43:55;512.70;2380.80
55365;DHT22;41245;45.384;20.390;2023-04-15T12:46:21;512.70;2380.80
55365;DHT22;41245;45.384;20.390;2023-04-15T12:48:46;512.60;2380.80
55365;DHT22;41245;45.384;20.390;2023-04-15T12:51:13;512.40;2380.80
55365;DHT22;41245;45.384;20.390;2023-04-15T12:53:39;512.40;2380.80
55365;DHT22;41245;45.384;20.390;2023-04-15T12:56:05;512.30;2380.80
55365;DHT22;41245;45.384;20.390;2023-04-15T12:58:31;512.10;2380.80
55365;DHT22;41245;45.384;20.390;2023-04-15T13:00:57;512.30;2380.80
55365;DHT22;41245;45.384;20.390;2023-04-15T13:03:22;512.30;2380.80
55365;DHT22;41245;45.384;20.390;2023-04-15T13:05:48;512.20;2380.80
55365;DHT22;41245;45.384;20.390;2023-04-15T13:08:15;512.30;2380.80
55365;DHT22;41245;45.384;20.390;2023-04-15T13:10:42;512.40;2380.80
55365;DHT22;41245;45.384;20.390;2023-04-15T13:13:08;512.40;2380.80
55365;DHT22;41245;45.384;20.390;2023-04-15T13:15:33;512.30;2380.80
55365;DHT22;41245;45.384;20.390;2023-04-15T13:17:59;512.30;2380.80
55365;DHT22;41245;45.384;20.390;2023-04-15T13:20:25;512.30;2380.80
55365;DHT22;41245;45.384;20.390;2023-04-15T13:22:52;512.30;2380.80
55365;DHT22;41245;45.384;20.390;2023-04-15T13:25:18;512.30;2380.80
55365;DHT22;41245;45.384;20.390;2023-04-15T13:27:44;512.30;2380.80
55365;DHT22;41245;45.384;20.390;2023-04-15T13:30:11;512.30;2380.80
55365;DHT22;41245;45.384;20.390;2023-04-15T13:32:37;512.10;2380.80
55365;DHT22;41245;45.384;20.390;2023-04-15T13:35:03;512.20;2380.80
55365;DHT22;41245;45.384;20.390;2023-04-15T13:37:29;512.30;2380.80
55365;DHT22;41245;45.384;20.390;2023-04-15T13:39:56;512.40;2380.80
55365;DHT22;41245;45.384;20.390;2023-04-15T13:42:22;512.50;2380.80
55365;DHT22;41245;45.384;20.390;2023-04-15T13:44:51;512.30;2380.80
55365;DHT22;41245;45.384;20.390;2023-04-15T13:47:18;512.30;2380.80
55365;DHT22;41245;45.384;20.390;2023-04-15T13:49:44;512.20;2380.80
55365;DHT22;41245;45.384;20.390;2023-04-15T13:52:11;512.10;2380.80
55365;DHT22;41245;45.384;20.390;2023-04-15T13:54:36;512.20;2380.80
55365;DHT22;41245;45.384;20.390;2023-04-15T13:57:02;512.40;2380.80
55365;DHT22;41245;45.384;20.390;2023-04-15T13:59:28;512.60;2380.80
55365;DHT22;41245;45.384;20.390;2023-04-15T14:01:54;512.60;2380.80
55365;DHT22;41245;45.384;20.390;2023-04-15T14:04:19;512.70;2380.80
55365;DHT22;41245;45.384;20.390;2023-04-15T14:06:45;512.90;2380.80
55365;DHT22;41245;45.384;20.390;2023-04-15T14:09:11;512.70;2380.80
55365;DHT22;41245;45.384;20.390;2023-04-15T14:11:40;512.80;2380.80
55365;DHT22;41245;45.384;20.390;2023-04-15T14:14:05;512.70;2380.80
55365;DHT22;41245;45.384;20.390;2023-04-15T14:16:32;512.70;2380.80
55365;DHT22;41245;45.384;20.390;2023-04-15T14:18:58;512.60;2380.80
55365;DHT22;41245;45.384;20.390;2023-04-15T14:21:24;512.40;2380.80
55365;DHT22;41245;45.384;20.390;2023-04-15T14:23:52;512.40;2380.80
55365;DHT22;41245;45.384;20.390;2023-04-15T14:26:18;512.40;2380.80
55365;DHT22;41245;45.384;20.390;2023-04-15T14:28:43;512.30;2380.80
55365;DHT22;41245;45.384;20.390;2023-04-15T14:31:10;512.30;2380.80
55365;DHT22;41245;45.384;20.390;2023-04-15T14:33:35;512.30;2380.80
55365;DHT22;41245;45.384;20.390;2023-04-15T14:36:01;512.30;2380.80
55365;DHT22;41245;45.384;20.390;2023-04-15T14:38:27;512.50;2380.80
55365;DHT22;41245;45.384;20.390;2023-04-15T14:40:52;512.10;2380.80
55365;DHT22;41245;45.384;20.390;2023-04-15T14:43:18;512.10;2380.80
55365;DHT22;41245;45.384;20.390;2023-04-15T14:45:45;512.10;2380.80
55365;DHT22;41245;45.384;20.390;2023-04-15T14:48:10;512.10;2380.80
55365;DHT22;41245;45.384;20.390;2023-04-15T14:50:37;512.10;2380.80
55365;DHT22;41245;45.384;20.390;2023-04-15T14:53:03;512.00;2380.80
55365;DHT22;41245;45.384;20.390;2023-04-15T14:55:28;487.30;2380.80
55365;DHT22;41245;45.384;20.390;2023-04-15T14:57:54;487.30;2380.80
55365;DHT22;41245;45.384;20.390;2023-04-15T15:00:20;487.30;2380.80
55365;DHT22;41245;45.384;20.390;2023-04-15T15:02:46;512.00;2380.80
55365;DHT22;41245;45.384;20.390;2023-04-15T15:05:12;512.00;2380.80
55365;DHT22;41245;45.384;20.390;2023-04-15T15:07:38;487.30;2380.80
55365;DHT22;41245;45.384;20.390;2023-04-15T15:10:05;487.30;2380.80
55365;DHT22;41245;45.384;20.390;2023-04-15T15:12:32;512.00;2380.80
55365;DHT22;41245;45.384;20.390;2023-04-15T15:14:58;512.00;2380.80
55365;DHT22;41245;45.384;20.390;2023-04-15T15:17:23;512.00;2380.80
55365;DHT22;41245;45.384;20.390;2023-04-15T15:19:49;487.30;2380.80
55365;DHT22;41245;45.384;20.390;2023-04-15T15:22:15;487.30;2380.80
55365;DHT22;41245;45.384;20.390;2023-04-15T15:24:41;487.30;2380.80
55365;DHT22;41245;45.384;20.390;2023-04-15T15:27:07;487.30;2355.20
55365;DHT22;41245;45.384;20.390;2023-04-15T15:29:32;512.00;2380.80
55365;DHT22;41245;45.384;20.390;2023-04-15T15:31:58;512.20;2380.80
55365;DHT22;41245;45.384;20.390;2023-04-15T15:34:24;512.20;2380.80
55365;DHT22;41245;45.384;20.390;2023-04-15T15:36:50;512.20;2380.80
55365;DHT22;41245;45.384;20.390;2023-04-15T15:39:15;512.10;2380.80
55365;DHT22;41245;45.384;20.390;2023-04-15T15:41:41;512.00;2380.80
55365;DHT22;41245;45.384;20.390;2023-04-15T15:44:07;512.00;2380.80
55365;DHT22;41245;45.384;20.390;2023-04-15T15:46:32;487.30;2380.80
55365;DHT22;41245;45.384;20.390;2023-04-15T15:48:58;512.00;2380.80
55365;DHT22;41245;45.384;20.390;2023-04-15T15:51:26;487.30;2380.80
55365;DHT22;41245;45.384;20.390;2023-04-15T15:53:52;512.00;2380.80
55365;DHT22;41245;45.384;20.390;2023-04-15T15:56:17;512.00;2380.80
55365;DHT22;41245;45.384;20.390;2023-04-15T15:58:44;487.20;2380.80
55365;DHT22;41245;45.384;20.390;2023-04-15T16:01:10;487.20;2380.80
55365;DHT22;41245;45.384;20.390;2023-04-15T16:03:36;487.10;2380.80
55365;DHT22;41245;45.384;20.390;2023-04-15T16:06:03;487.10;2380.80
55365;DHT22;41245;45.384;20.390;2023-04-15T16:08:29;487.00;2380.80
55365;DHT22;41245;45.384;20.390;2023-04-15T16:10:54;486.90;2304.00
55365;DHT22;41245;45.384;20.390;2023-04-15T16:13:21;486.40;2099.20
55365;DHT22;41245;45.384;20.390;2023-04-15T16:15:47;461.50;2227.20
55365;DHT22;41245;45.384;20.390;2023-04-15T16:18:14;461.30;2176.00
55365;DHT22;41245;45.384;20.390;2023-04-15T16:20:40;461.00;2073.60
55365;DHT22;41245;45.384;20.390;2023-04-15T16:23:14;436.10;2355.20
55365;DHT22;41245;45.384;20.390;2023-04-15T16:25:41;435.90;2022.40
55365;DHT22;41245;45.384;20.390;2023-04-15T16:28:07;435.90;2022.40
55365;DHT22;41245;45.384;20.390;2023-04-15T16:30:37;435.90;2355.20
55365;DHT22;41245;45.384;20.390;2023-04-15T16:33:04;435.90;2022.40
55365;DHT22;41245;45.384;20.390;2023-04-15T16:35:30;436.00;1996.80
55365;DHT22;41245;45.384;20.390;2023-04-15T16:37:56;436.00;2048.00
55365;DHT22;41245;45.384;20.390;2023-04-15T16:40:22;436.00;2022.40
55365;DHT22;41245;45.384;20.390;2023-04-15T16:42:48;435.90;2355.20
55365;DHT22;41245;45.384;20.390;2023-04-15T16:45:14;435.90;2355.20
55365;DHT22;41245;45.384;20.390;2023-04-15T16:47:40;435.80;1996.80
55365;DHT22;41245;45.384;20.390;2023-04-15T16:50:06;435.70;1971.20
55365;DHT22;41245;45.384;20.390;2023-04-15T16:52:32;435.70;1971.20
55365;DHT22;41245;45.384;20.390;2023-04-15T16:54:58;435.70;2355.20
55365;DHT22;41245;45.384;20.390;2023-04-15T16:57:24;435.60;2355.20
55365;DHT22;41245;45.384;20.390;2023-04-15T16:59:50;435.30;2355.20
55365;DHT22;41245;45.384;20.390;2023-04-15T17:02:16;435.30;1971.20
55365;DHT22;41245;45.384;20.390;2023-04-15T17:04:41;435.30;2355.20
55365;DHT22;41245;45.384;20.390;2023-04-15T17:07:07;410.40;2355.20
55365;DHT22;41245;45.384;20.390;2023-04-15T17:09:35;410.10;2355.20
55365;DHT22;41245;45.384;20.390;2023-04-15T17:12:01;384.80;2329.60
55365;DHT22;41245;45.384;20.390;2023-04-15T17:14:28;409.70;2355.20
55365;DHT22;41245;45.384;20.390;2023-04-15T17:16:54;409.60;2355.20
55365;DHT22;41245;45.384;20.390;2023-04-15T17:19:20;409.60;2355.20
55365;DHT22;41245;45.384;20.390;2023-04-15T17:21:46;384.90;2329.60
55365;DHT22;41245;45.384;20.390;2023-04-15T17:24:12;384.90;2329.60
55365;DHT22;41245;45.384;20.390;2023-04-15T17:26:37;384.80;2329.60
55365;DHT22;41245;45.384;20.390;2023-04-15T17:29:03;384.70;2329.60
55365;DHT22;41245;45.384;20.390;2023-04-15T17:31:29;384.50;2329.60
55365;DHT22;41245;45.384;20.390;2023-04-15T17:33:56;384.30;2329.60
55365;DHT22;41245;45.384;20.390;2023-04-15T17:36:22;384.30;2329.60
55365;DHT22;41245;45.384;20.390;2023-04-15T17:38:48;384.10;2329.60
55365;DHT22;41245;45.384;20.390;2023-04-15T17:41:14;384.20;2329.60
55365;DHT22;41245;45.384;20.390;2023-04-15T17:43:40;384.00;2329.60
55365;DHT22;41245;45.384;20.390;2023-04-15T17:46:06;384.00;2329.60
55365;DHT22;41245;45.384;20.390;2023-04-15T17:48:32;384.00;2329.60
55365;DHT22;41245;45.384;20.390;2023-04-15T17:50:59;359.30;2329.60
55365;DHT22;41245;45.384;20.390;2023-04-15T17:53:25;359.20;2329.60
55365;DHT22;41245;45.384;20.390;2023-04-15T17:55:51;359.20;2329.60
55365;DHT22;41245;45.384;20.390;2023-04-15T17:58:18;359.20;2329.60
55365;DHT22;41245;45.384;20.390;2023-04-15T18:00:45;359.20;2329.60
55365;DHT22;41245;45.384;20.390;2023-04-15T18:03:11;359.20;2329.60
55365;DHT22;41245;45.384;20.390;2023-04-15T18:05:37;359.10;2329.60
55365;DHT22;41245;45.384;20.390;2023-04-15T18:08:02;359.10;2329.60
55365;DHT22;41245;45.384;20.390;2023-04-15T18:10:28;359.10;2329.60
55365;DHT22;41245;45.384;20.390;2023-04-15T18:12:54;359.10;2329.60
55365;DHT22;41245;45.384;20.390;2023-04-15T18:15:20;359.00;2329.60
55365;DHT22;41245;45.384;20.390;2023-04-15T18:17:46;358.90;2329.60
55365;DHT22;41245;45.384;20.390;2023-04-15T18:20:12;358.90;2329.60
55365;DHT22;41245;45.384;20.390;2023-04-15T18:22:38;358.80;2329.60
55365;DHT22;41245;45.384;20.390;2023-04-15T18:25:04;358.90;2329.60
55365;DHT22;41245;45.384;20.390;2023-04-15T18:27:31;358.70;2329.60
55365;DHT22;41245;45.384;20.390;2023-04-15T18:29:57;358.70;2329.60
55365;DHT22;41245;45.384;20.390;2023-04-15T18:32:23;358.70;2329.60
55365;DHT22;41245;45.384;20.390;2023-04-15T18:34:49;358.80;2329.60
55365;DHT22;41245;45.384;20.390;2023-04-15T18:37:15;358.70;2329.60
55365;DHT22;41245;45.384;20.390;2023-04-15T18:39:42;358.70;2329.60
55365;DHT22;41245;45.384;20.390;2023-04-15T18:47:00;358.80;2329.60
55365;DHT22;41245;45.384;20.390;2023-04-15T18:49:26;358.70;2329.60
55365;DHT22;41245;45.384;20.390;2023-04-15T18:51:51;358.70;2329.60
55365;DHT22;41245;45.384;20.390;2023-04-15T18:54:17;358.60;2329.60
55365;DHT22;41245;45.384;20.390;2023-04-15T18:56:43;358.50;2329.60
55365;DHT22;41245;45.384;20.390;2023-04-15T18:59:09;358.50;2329.60
55365;DHT22;41245;45.384;20.390;2023-04-15T19:01:35;358.50;2329.60
55365;DHT22;41245;45.384;20.390;2023-04-15T19:04:01;358.50;2329.60
55365;DHT22;41245;45.384;20.390;2023-04-15T19:06:26;358.50;2329.60
55365;DHT22;41245;45.384;20.390;2023-04-15T19:08:53;358.40;2329.60
55365;DHT22;41245;45.384;20.390;2023-04-15T19:11:19;358.40;2329.60
55365;DHT22;41245;45.384;20.390;2023-04-15T19:13:45;358.40;2329.60
55365;DHT22;41245;45.384;20.390;2023-04-15T19:45:27;333.70;2329.60
55365;DHT22;41245;45.384;20.390;2023-04-15T19:47:53;333.60;2329.60
55365;DHT22;41245;45.384;20.390;2023-04-15T19:50:18;333.50;2329.60
55365;DHT22;41245;45.384;20.390;2023-04-15T19:52:49;333.60;2329.60
55365;DHT22;41245;45.384;20.390;2023-04-15T19:55:14;333.60;2329.60
55365;DHT22;41245;45.384;20.390;2023-04-15T19:57:40;333.70;2329.60
55365;DHT22;41245;45.384;20.390;2023-04-15T20:00:09;333.70;2329.60
55365;DHT22;41245;45.384;20.390;2023-04-15T20:02:35;333.70;2329.60
55365;DHT22;41245;45.384;20.390;2023-04-15T20:05:01;358.40;2329.60
55365;DHT22;41245;45.384;20.390;2023-04-15T20:07:27;358.40;2329.60
55365;DHT22;41245;45.384;20.390;2023-04-15T20:09:52;358.50;2329.60
55365;DHT22;41245;45.384;20.390;2023-04-15T20:12:18;358.60;2329.60
55365;DHT22;41245;45.384;20.390;2023-04-15T20:14:44;358.70;2329.60
55365;DHT22;41245;45.384;20.390;2023-04-15T20:17:09;358.70;2329.60
55365;DHT22;41245;45.384;20.390;2023-04-15T20:19:36;358.70;2329.60
55365;DHT22;41245;45.384;20.390;2023-04-15T20:22:01;358.50;2329.60
55365;DHT22;41245;45.384;20.390;2023-04-15T20:24:27;358.40;2329.60
55365;DHT22;41245;45.384;20.390;2023-04-15T20:26:53;333.70;2329.60
55365;DHT22;41245;45.384;20.390;2023-04-15T20:29:18;333.40;2329.60
55365;DHT22;41245;45.384;20.390;2023-04-15T20:31:44;333.20;2329.60
55365;DHT22;41245;45.384;20.390;2023-04-15T20:34:10;333.20;2329.60
55365;DHT22;41245;45.384;20.390;2023-04-15T20:46:20;333.00;2329.60
55365;DHT22;41245;45.384;20.390;2023-04-15T20:48:46;332.80;2329.60
55365;DHT22;41245;45.384;20.390;2023-04-15T20:51:11;308.10;2304.00
55365;DHT22;41245;45.384;20.390;2023-04-15T20:53:37;308.10;2304.00
55365;DHT22;41245;45.384;20.390;2023-04-15T20:56:03;308.10;2304.00
55365;DHT22;41245;45.384;20.390;2023-04-15T20:58:30;308.10;2304.00
55365;DHT22;41245;45.384;20.390;2023-04-15T21:00:56;308.00;2304.00
55365;DHT22;41245;45.384;20.390;2023-04-15T21:03:23;308.00;2304.00
55365;DHT22;41245;45.384;20.390;2023-04-15T21:05:48;308.00;2304.00
55365;DHT22;41245;45.384;20.390;2023-04-15T21:08:14;308.00;2304.00
55365;DHT22;41245;45.384;20.390;2023-04-15T21:10:40;308.10;2304.00
55365;DHT22;41245;45.384;20.390;2023-04-15T21:13:06;308.10;2304.00
55365;DHT22;41245;45.384;20.390;2023-04-15T21:15:32;332.80;2329.60
55365;DHT22;41245;45.384;20.390;2023-04-15T21:17:58;332.90;2329.60
55365;DHT22;41245;45.384;20.390;2023-04-15T21:20:24;333.00;2329.60
55365;DHT22;41245;45.384;20.390;2023-04-15T21:22:49;333.10;2329.60
55365;DHT22;41245;45.384;20.390;2023-04-15T21:25:17;333.10;2329.60
55365;DHT22;41245;45.384;20.390;2023-04-15T21:27:43;333.00;2329.60
55365;DHT22;41245;45.384;20.390;2023-04-15T21:30:09;333.00;2329.60
55365;DHT22;41245;45.384;20.390;2023-04-15T21:32:35;332.90;2329.60
55365;DHT22;41245;45.384;20.390;2023-04-15T21:35:00;332.90;2329.60
55365;DHT22;41245;45.384;20.390;2023-04-15T21:37:26;332.80;2329.60
55365;DHT22;41245;45.384;20.390;2023-04-15T21:39:52;332.80;2329.60
55365;DHT22;41245;45.384;20.390;2023-04-15T21:42:17;308.10;2304.00
55365;DHT22;41245;45.384;20.390;2023-04-15T21:44:43;308.00;2304.00
55365;DHT22;41245;45.384;20.390;2023-04-15T21:47:09;307.90;2304.00